Time,TemperatureF,DewpointF,PressureIn,WindDirection,WindDirectionDegrees,WindSpeedMPH,WindSpeedGustMPH,Humidity,HourlyPrecipIn,Conditions,Clouds,dailyrainin,SoftwareType,DateUTC
2013-08-21 00:14:00,66.0,64.0,30.09,SSW,208,0.0,0.0,94,0.03,,,-99.99,,2013-08-21 04:14:00,
2013-08-21 00:24:00,66.0,65.0,30.09,SSW,208,0.0,0.0,95,0.03,,,-99.99,,2013-08-21 04:24:00,
2013-08-21 00:44:00,65.0,64.0,30.09,SSW,208,0.0,0.0,96,0.03,,,-99.99,,2013-08-21 04:44:00,
2013-08-21 00:54:00,65.0,64.0,30.09,SSW,208,0.0,0.0,96,0.03,,,-99.99,,2013-08-21 04:54:00,
2013-08-21 01:13:00,65.0,64.0,30.09,SSW,208,0.0,0.0,96,0.03,,,-99.99,,2013-08-21 05:13:00,
2013-08-21 01:23:00,66.0,65.0,30.09,SSW,208,0.0,0.0,97,0.03,,,-99.99,,2013-08-21 05:23:00,
2013-08-21 01:43:00,65.0,64.0,30.09,SSW,208,0.0,0.0,98,0.03,,,-99.99,,2013-08-21 05:43:00,
2013-08-21 01:52:00,65.0,64.0,30.09,SSW,208,0.0,0.0,98,0.03,,,-99.99,,2013-08-21 05:52:00,
2013-08-21 02:12:00,65.0,65.0,30.09,SSW,208,0.0,0.0,99,0.03,,,-99.99,,2013-08-21 06:12:00,
2013-08-21 02:22:00,64.0,64.0,30.09,SSW,208,0.0,0.0,100,0.03,,,-99.99,,2013-08-21 06:22:00,
2013-08-21 02:42:00,64.0,64.0,30.09,SSW,208,0.0,0.0,100,0.03,,,-99.99,,2013-08-21 06:42:00,
2013-08-21 02:52:00,64.0,64.0,30.08,SSW,208,0.0,0.0,100,0.03,,,-99.99,,2013-08-21 06:52:00,
2013-08-21 03:11:00,65.0,65.0,30.09,SSW,208,0.0,0.0,100,0.03,,,-99.99,,2013-08-21 07:11:00,
2013-08-21 03:22:00,65.0,65.0,30.09,SSW,208,0.0,0.0,100,0.03,,,-99.99,,2013-08-21 07:22:00,
2013-08-21 03:42:00,64.0,64.0,30.09,SSW,208,0.0,0.0,100,0.03,,,-99.99,,2013-08-21 07:42:00,
2013-08-21 03:53:00,64.0,64.0,30.08,SSW,208,0.0,0.0,100,0.03,,,-99.99,,2013-08-21 07:53:00,
2013-08-21 04:03:00,64.0,64.0,30.08,SSW,208,0.0,0.0,100,0.03,,,-99.99,,2013-08-21 08:03:00,
2013-08-21 04:12:00,64.0,64.0,30.08,SSW,208,0.0,0.0,100,0.03,,,-99.99,,2013-08-21 08:12:00,
2013-08-21 04:22:00,64.0,64.0,30.08,SSW,208,0.0,0.0,100,0.03,,,-99.99,,2013-08-21 08:22:00,
2013-08-21 04:43:00,65.0,65.0,30.08,SSW,208,0.0,0.0,100,0.03,,,-99.99,,2013-08-21 08:43:00,
2013-08-21 04:53:00,66.0,66.0,30.08,SSW,208,0.0,0.0,100,0.03,,,-99.99,,2013-08-21 08:53:00,
2013-08-21 05:11:00,66.0,66.0,30.08,SSW,208,0.0,0.0,100,0.03,,,-99.99,,2013-08-21 09:11:00,
2013-08-21 05:22:00,65.0,65.0,30.08,SSW,208,0.0,0.0,100,0.03,,,-99.99,,2013-08-21 09:22:00,
2013-08-21 05:43:00,64.0,64.0,30.08,SSW,208,0.0,0.0,100,0.03,,,-99.99,,2013-08-21 09:43:00,
2013-08-21 05:54:00,64.0,64.0,30.08,SSW,208,0.0,0.0,100,0.03,,,-99.99,,2013-08-21 09:54:00,
2013-08-21 06:13:00,64.0,64.0,30.08,SSW,208,0.0,0.0,100,0.03,,,-99.99,,2013-08-21 10:13:00,
2013-08-21 06:23:00,64.0,64.0,30.09,SSW,208,0.0,0.0,100,0.03,,,-99.99,,2013-08-21 10:23:00,
2013-08-21 06:43:00,64.0,64.0,30.09,SSW,208,0.0,0.0,100,0.03,,,-99.99,,2013-08-21 10:43:00,
2013-08-21 06:53:00,64.0,64.0,30.09,SSW,208,0.0,0.0,100,0.03,,,-99.99,,2013-08-21 10:53:00,
2013-08-21 07:12:00,65.0,65.0,30.09,SSW,208,0.0,0.0,100,0.03,,,-99.99,,2013-08-21 11:12:00,
2013-08-21 07:22:00,65.0,65.0,30.09,SSW,208,0.0,0.0,100,0.03,,,-99.99,,2013-08-21 11:22:00,
2013-08-21 07:33:00,65.0,65.0,30.09,SSW,208,0.0,0.0,100,0.03,,,-99.99,,2013-08-21 11:33:00,
2013-08-21 07:42:00,65.0,65.0,30.09,SSW,208,0.0,0.0,100,0.03,,,-99.99,,2013-08-21 11:42:00,
2013-08-21 07:52:00,63.0,63.0,30.09,SSW,208,0.0,0.0,100,0.03,,,-99.99,,2013-08-21 11:52:00,
2013-08-21 08:12:00,63.0,63.0,30.09,SSW,208,0.0,0.0,100,0.03,,,-99.99,,2013-08-21 12:12:00,
2013-08-21 08:22:00,63.0,63.0,30.09,SSW,208,0.0,0.0,100,0.03,,,-99.99,,2013-08-21 12:22:00,
2013-08-21 08:42:00,66.0,66.0,30.10,SSW,193,3.0,0.0,100,0.03,,,-99.99,,2013-08-21 12:42:00,
2013-08-21 08:52:00,67.0,67.0,30.10,South,183,5.0,0.0,100,0.03,,,-99.99,,2013-08-21 12:52:00,
2013-08-21 09:12:00,69.0,69.0,30.10,SSW,208,5.0,0.0,100,0.03,,,-99.99,,2013-08-21 13:12:00,
2013-08-21 09:22:00,72.0,70.0,30.10,South,184,7.0,0.0,95,0.03,,,-99.99,,2013-08-21 13:22:00,
2013-08-21 09:42:00,73.0,71.0,30.10,South,170,7.0,0.0,92,0.03,,,-99.99,,2013-08-21 13:42:00,
2013-08-21 10:12:00,75.0,70.0,30.09,South,183,9.0,0.0,85,0.03,,,-99.99,,2013-08-21 14:12:00,
2013-08-21 10:22:00,77.0,71.0,30.09,South,190,8.0,0.0,81,0.03,,,-99.99,,2013-08-21 14:22:00,
2013-08-21 10:42:00,78.0,70.0,30.10,South,186,10.0,0.0,77,0.03,,,-99.99,,2013-08-21 14:42:00,
2013-08-21 10:52:00,79.0,70.0,30.09,SSW,200,10.0,0.0,73,0.03,,,-99.99,,2013-08-21 14:52:00,
2013-08-21 11:10:00,80.0,69.0,30.09,South,170,11.0,0.0,69,0.03,,,-99.99,,2013-08-21 15:10:00,
2013-08-21 11:11:00,79.0,70.0,30.09,SSW,207,10.0,0.0,73,0.03,,,-99.99,,2013-08-21 15:11:00,
2013-08-21 11:22:00,80.0,70.0,30.09,SSW,194,9.0,0.0,71,0.03,,,-99.99,,2013-08-21 15:22:00,
2013-08-21 11:43:00,80.0,69.0,30.09,South,170,11.0,0.0,69,0.03,,,-99.99,,2013-08-21 15:43:00,
2013-08-21 11:55:00,80.0,69.0,30.09,South,170,11.0,0.0,69,0.03,,,-99.99,,2013-08-21 15:55:00,
2013-08-21 12:04:00,80.0,69.0,30.09,South,170,11.0,0.0,69,0.03,,,-99.99,,2013-08-21 16:04:00,
2013-08-21 12:24:00,83.0,67.0,30.09,SW,215,8.0,0.0,59,0.03,,,-99.99,,2013-08-21 16:24:00,
2013-08-21 12:34:00,83.0,67.0,30.09,SW,215,8.0,0.0,59,0.03,,,-99.99,,2013-08-21 16:34:00,
2013-08-21 12:43:00,83.0,67.0,30.09,SW,215,8.0,0.0,59,0.03,,,-99.99,,2013-08-21 16:43:00,
2013-08-21 12:53:00,83.0,66.0,30.09,South,169,11.0,0.0,57,0.03,,,-99.99,,2013-08-21 16:53:00,
2013-08-21 13:04:00,83.0,66.0,30.09,South,169,11.0,0.0,57,0.03,,,-99.99,,2013-08-21 17:04:00,
2013-08-21 13:13:00,83.0,66.0,30.09,South,169,11.0,0.0,57,0.03,,,-99.99,,2013-08-21 17:13:00,
2013-08-21 13:23:00,83.0,65.0,30.08,SSW,208,9.0,0.0,54,0.03,,,-99.99,,2013-08-21 17:23:00,
2013-08-21 13:43:00,84.0,63.0,30.08,SSW,208,10.0,0.0,50,0.03,,,-99.99,,2013-08-21 17:43:00,
2013-08-21 13:53:00,84.0,63.0,30.08,South,179,16.0,0.0,50,0.03,,,-99.99,,2013-08-21 17:53:00,
2013-08-21 14:12:00,84.0,63.0,30.08,South,179,16.0,0.0,50,0.03,,,-99.99,,2013-08-21 18:12:00,
2013-08-21 14:22:00,84.0,64.0,30.07,SSW,208,11.0,0.0,51,0.03,,,-99.99,,2013-08-21 18:22:00,
2013-08-21 14:42:00,85.0,64.0,30.07,SSW,200,6.0,0.0,49,0.03,,,-99.99,,2013-08-21 18:42:00,
2013-08-21 14:52:00,85.0,63.0,30.06,South,191,12.0,0.0,48,0.03,,,-99.99,,2013-08-21 18:52:00,
2013-08-21 15:12:00,86.0,63.0,30.06,SSW,211,6.0,0.0,47,0.03,,,-99.99,,2013-08-21 19:12:00,
2013-08-21 15:22:00,86.0,63.0,30.06,SW,218,8.0,0.0,46,0.03,,,-99.99,,2013-08-21 19:22:00,
2013-08-21 15:42:00,85.0,64.0,30.05,SSW,201,14.0,0.0,49,0.03,,,-99.99,,2013-08-21 19:42:00,
2013-08-21 15:52:00,85.0,62.0,30.05,South,186,13.0,0.0,47,0.03,,,-99.99,,2013-08-21 19:52:00,
2013-08-21 16:03:00,85.0,62.0,30.05,South,186,13.0,0.0,47,0.03,,,-99.99,,2013-08-21 20:03:00,
2013-08-21 16:11:00,85.0,62.0,30.05,South,186,13.0,0.0,47,0.03,,,-99.99,,2013-08-21 20:11:00,
2013-08-21 16:22:00,85.0,62.0,30.04,SSW,194,13.0,0.0,47,0.03,,,-99.99,,2013-08-21 20:22:00,
2013-08-21 16:42:00,85.0,63.0,30.04,SSW,204,13.0,0.0,48,0.03,,,-99.99,,2013-08-21 20:42:00,
2013-08-21 16:52:00,86.0,63.0,30.03,West,266,7.0,0.0,47,0.03,,,-99.99,,2013-08-21 20:52:00,
2013-08-21 17:12:00,85.0,63.0,30.03,South,181,9.0,0.0,48,0.03,,,-99.99,,2013-08-21 21:12:00,
2013-08-21 17:22:00,85.0,63.0,30.03,South,191,9.0,0.0,48,0.03,,,-99.99,,2013-08-21 21:22:00,
2013-08-21 17:54:00,86.0,63.0,30.01,SSW,205,7.0,0.0,47,0.03,,,-99.99,,2013-08-21 21:54:00,
2013-08-21 18:14:00,85.0,64.0,30.01,South,184,11.0,0.0,49,0.03,,,-99.99,,2013-08-21 22:14:00,
2013-08-21 18:24:00,85.0,64.0,30.00,SSW,207,7.0,0.0,50,0.03,,,-99.99,,2013-08-21 22:24:00,
2013-08-21 18:43:00,84.0,63.0,29.99,South,174,10.0,0.0,50,0.03,,,-99.99,,2013-08-21 22:43:00,
2013-08-21 18:53:00,84.0,63.0,29.99,SW,214,12.0,0.0,50,0.03,,,-99.99,,2013-08-21 22:53:00,
2013-08-21 19:13:00,83.0,63.0,29.99,SSW,211,11.0,0.0,51,0.03,,,-99.99,,2013-08-21 23:13:00,
2013-08-21 19:22:00,83.0,64.0,29.98,South,176,11.0,0.0,52,0.03,,,-99.99,,2013-08-21 23:22:00,
2013-08-21 19:53:00,82.0,63.0,29.98,SSW,207,8.0,0.0,53,0.03,,,-99.99,,2013-08-21 23:53:00,
2013-08-21 20:02:00,82.0,63.0,29.98,SSW,207,8.0,0.0,53,0.03,,,-99.99,,2013-08-22 00:02:00,
2013-08-21 20:12:00,82.0,63.0,29.98,SSW,207,8.0,0.0,53,0.03,,,-99.99,,2013-08-22 00:12:00,
2013-08-21 20:22:00,81.0,64.0,29.97,SW,219,8.0,0.0,57,0.03,,,-99.99,,2013-08-22 00:22:00,
2013-08-21 20:42:00,80.0,64.0,29.99,South,174,6.0,0.0,59,0.03,,,-99.99,,2013-08-22 00:42:00,
2013-08-21 20:52:00,79.0,65.0,30.00,SSW,203,5.0,0.0,62,0.03,,,-99.99,,2013-08-22 00:52:00,
2013-08-21 21:12:00,79.0,66.0,30.01,SW,226,5.0,0.0,64,0.03,,,-99.99,,2013-08-22 01:12:00,
2013-08-21 21:22:00,78.0,65.0,30.01,South,181,5.0,0.0,65,0.03,,,-99.99,,2013-08-22 01:22:00,
2013-08-21 21:42:00,78.0,66.0,30.00,SSW,197,6.0,0.0,66,0.03,,,-99.99,,2013-08-22 01:42:00,
2013-08-21 21:52:00,78.0,67.0,30.01,South,181,6.0,0.0,68,0.03,,,-99.99,,2013-08-22 01:52:00,
2013-08-21 22:12:00,78.0,67.0,30.01,South,181,6.0,0.0,68,0.03,,,-99.99,,2013-08-22 02:12:00,
2013-08-21 22:22:00,78.0,67.0,30.01,SSW,201,7.0,0.0,69,0.03,,,-99.99,,2013-08-22 02:22:00,
2013-08-21 23:12:00,77.0,67.0,30.02,SSW,195,2.0,0.0,71,0.03,,,-99.99,,2013-08-22 03:12:00,
2013-08-21 23:22:00,78.0,68.0,30.00,SW,219,8.0,0.0,72,0.03,,,-99.99,,2013-08-22 03:22:00,
2013-08-21 23:45:00,77.0,68.0,30.00,SSW,208,6.0,0.0,73,0.03,,,-99.99,,2013-08-22 03:45:00,
2013-08-21 23:54:00,77.0,68.0,30.00,SW,221,0.0,0.0,75,0.03,,,-99.99,,2013-08-22 03:54:00,